Time;durP1;ratioP1;P1;durP2;ratioP2;P2;SDS_P1;SDS_P2;PMS_P1;PMS_P2;Temp;Humidity;BMP_temperature;BMP_pressure;BME280_temperature;BME280_humidity;BME280_pressure;Samples;Min_cycle;Max_cycle;Signal;HPM_P1;HPM_P2
2022/11/22 00:00:15;;;;;;;18.48;3.65;;;;;;;6.36;98.47;98787.84;5035810;28;20051;-65
2022/11/22 00:02:42;;;;;;;11.45;3.20;;;;;;;6.32;98.34;98788.19;5036931;28;20099;-64
2022/11/22 00:05:10;;;;;;;12.55;3.45;;;;;;;6.23;98.58;98785.78;5036437;28;20494;-64
2022/11/22 00:07:38;;;;;;;12.60;3.58;;;;;;;6.25;99.99;98778.53;5036553;28;20045;-64
2022/11/22 00:10:06;;;;;;;12.27;3.13;;;;;;;6.25;99.57;98773.25;5036300;28;20495;-64
2022/11/22 00:12:33;;;;;;;15.10;3.65;;;;;;;6.22;99.52;98769.16;4918955;28;20564;-66
2022/11/22 00:15:00;;;;;;;10.95;2.67;;;;;;;6.19;99.39;98771.34;5036641;28;20053;-64
2022/11/22 00:18:06;;;;;;;13.82;3.35;;;;;;;6.15;99.27;98787.47;5036274;28;20053;-65
2022/11/22 00:20:34;;;;;;;17.90;3.75;;;;;;;6.14;100.00;98775.28;5036139;28;20449;-64
2022/11/22 00:23:01;;;;;;;13.98;2.92;;;;;;;6.12;100.00;98779.09;5035924;28;20442;-65
2022/11/22 00:25:27;;;;;;;15.05;3.53;;;;;;;6.09;100.00;98776.81;5036483;28;20495;-64
2022/11/22 00:27:54;;;;;;;11.63;3.03;;;;;;;6.07;100.00;98774.34;5034934;28;20053;-66
2022/11/22 00:30:21;;;;;;;17.95;3.80;;;;;;;6.21;100.00;98777.25;5036533;28;20054;-65
2022/11/22 00:32:47;;;;;;;14.50;3.35;;;;;;;6.24;100.00;98780.34;5035291;28;20053;-64
2022/11/22 00:35:14;;;;;;;13.00;3.40;;;;;;;6.24;100.00;98771.59;5036298;28;20065;-64
2022/11/22 00:37:41;;;;;;;13.50;3.45;;;;;;;6.18;100.00;98781.03;5035757;28;20099;-64
2022/11/22 00:40:08;;;;;;;15.68;4.07;;;;;;;6.18;100.00;98781.03;5036449;28;20073;-64
2022/11/22 00:42:35;;;;;;;13.18;3.67;;;;;;;6.19;100.00;98779.22;5035919;28;20045;-64
2022/11/22 00:45:01;;;;;;;15.93;3.42;;;;;;;6.26;100.00;98781.00;5034942;28;20045;-64
2022/11/22 00:47:28;;;;;;;18.77;4.22;;;;;;;6.16;100.00;98780.38;5035806;28;20042;-65
2022/11/22 00:49:55;;;;;;;12.40;4.00;;;;;;;6.30;100.00;98789.38;5035965;28;20052;-64
2022/11/22 00:52:21;;;;;;;14.18;3.88;;;;;;;6.29;100.00;98801.72;5036118;28;20053;-64
2022/11/22 00:54:48;;;;;;;17.63;3.85;;;;;;;6.29;100.00;98803.50;5035701;28;20075;-64
2022/11/22 00:57:18;;;;;;;17.52;4.10;;;;;;;6.33;100.00;98792.47;5035789;28;20064;-64
2022/11/22 00:59:45;;;;;;;22.25;4.40;;;;;;;6.33;100.00;98791.63;5035763;28;20053;-64
2022/11/22 01:02:12;;;;;;;13.15;4.03;;;;;;;6.27;100.00;98790.50;5035776;28;20048;-64
2022/11/22 01:04:38;;;;;;;15.10;4.18;;;;;;;6.26;100.00;98796.78;5034984;28;20050;-64
2022/11/22 01:07:05;;;;;;;14.90;3.78;;;;;;;6.31;100.00;98796.25;5035336;28;20053;-64
2022/11/22 01:09:32;;;;;;;12.35;3.90;;;;;;;6.42;100.00;98800.31;5035326;28;20065;-64
2022/11/22 01:11:59;;;;;;;16.48;4.03;;;;;;;6.45;100.00;98794.69;5035398;28;20545;-65
2022/11/22 01:14:26;;;;;;;17.42;4.35;;;;;;;6.52;100.00;98806.16;5035588;28;20044;-65
2022/11/22 01:16:52;;;;;;;14.70;4.30;;;;;;;6.59;100.00;98806.31;5035400;28;20483;-65
2022/11/22 01:19:19;;;;;;;12.20;4.13;;;;;;;6.52;100.00;98804.34;5035125;28;20396;-65
2022/11/22 01:21:46;;;;;;;17.17;4.45;;;;;;;6.53;100.00;98811.28;5035615;28;20045;-66
2022/11/22 01:24:12;;;;;;;17.35;4.72;;;;;;;6.60;100.00;98810.56;5035365;28;20104;-66
2022/11/22 01:26:40;;;;;;;16.30;4.63;;;;;;;6.57;100.00;98803.84;5035336;28;20053;-65
2022/11/22 01:29:06;;;;;;;16.17;4.13;;;;;;;6.52;100.00;98806.97;5034981;28;20037;-65
2022/11/22 01:31:33;;;;;;;13.05;3.80;;;;;;;6.61;100.00;98804.31;5035023;28;20046;-65
2022/11/22 01:34:00;;;;;;;14.52;3.75;;;;;;;6.67;100.00;98808.88;5035293;28;20045;-65
2022/11/22 01:36:26;;;;;;;12.63;3.63;;;;;;;6.73;100.00;98809.00;5035068;28;20056;-65
2022/11/22 01:38:53;;;;;;;13.73;3.78;;;;;;;6.72;100.00;98804.69;5035202;28;20053;-65
2022/11/22 01:41:21;;;;;;;12.20;3.25;;;;;;;6.68;100.00;98803.41;5034729;28;20080;-65
2022/11/22 01:43:48;;;;;;;11.98;3.33;;;;;;;6.66;100.00;98805.41;5035346;28;20045;-65
2022/11/22 01:46:33;;;;;;;12.85;3.40;;;;;;;6.70;100.00;98793.53;5034815;28;20432;-65
2022/11/22 01:49:10;;;;;;;11.38;3.35;;;;;;;6.75;100.00;98805.34;5035047;28;20045;-65
2022/11/22 01:51:41;;;;;;;9.63;3.17;;;;;;;6.82;100.00;98804.47;5034712;28;20045;-65
2022/11/22 01:54:14;;;;;;;11.95;3.30;;;;;;;6.80;100.00;98810.91;5035057;28;20056;-65
2022/11/22 01:56:44;;;;;;;13.65;3.55;;;;;;;6.79;100.00;98812.72;5033122;28;20045;-65
2022/11/22 01:59:15;;;;;;;13.65;3.50;;;;;;;6.79;100.00;98817.19;5034643;28;20042;-65
2022/11/22 02:01:42;;;;;;;13.02;3.38;;;;;;;6.77;100.00;98819.16;5034792;28;20053;-65
2022/11/22 02:04:12;;;;;;;10.30;3.70;;;;;;;6.79;100.00;98827.72;5034458;28;20437;-65
2022/11/22 02:06:48;;;;;;;16.98;3.67;;;;;;;6.87;99.59;98836.38;5034013;28;20136;-65
2022/11/22 02:09:15;;;;;;;24.80;6.35;;;;;;;6.83;99.12;98834.28;5034645;28;20046;-64
2022/11/22 02:11:49;;;;;;;19.17;4.18;;;;;;;6.82;99.70;98832.63;5034230;28;20051;-64
2022/11/22 02:14:20;;;;;;;17.45;3.90;;;;;;;6.71;99.21;98832.06;5033294;28;20092;-64
2022/11/22 02:16:47;;;;;;;14.70;4.07;;;;;;;6.65;99.58;98835.38;5032295;28;20491;-64
2022/11/22 02:19:20;;;;;;;13.65;3.70;;;;;;;6.62;99.83;98841.03;5034435;28;20038;-64
2022/11/22 02:21:52;;;;;;;13.00;3.47;;;;;;;6.58;100.00;98844.97;5033912;28;20128;-65
2022/11/22 02:24:25;;;;;;;14.43;4.07;;;;;;;6.56;100.00;98848.78;5034629;28;20060;-65
2022/11/22 02:26:52;;;;;;;13.88;3.95;;;;;;;6.49;100.00;98835.50;5032502;28;20045;-65
2022/11/22 02:29:19;;;;;;;13.07;3.78;;;;;;;6.46;100.00;98841.94;5034437;28;20115;-65
2022/11/22 02:31:46;;;;;;;12.80;4.05;;;;;;;6.43;100.00;98846.72;5033590;28;20053;-65
2022/11/22 02:34:13;;;;;;;13.98;3.90;;;;;;;6.39;100.00;98848.06;5034177;28;20042;-65
2022/11/22 02:36:46;;;;;;;13.57;4.22;;;;;;;6.32;100.00;98847.94;5034075;28;20049;-65
2022/11/22 02:39:16;;;;;;;16.83;4.10;;;;;;;6.30;100.00;98853.38;5033961;28;20104;-65
2022/11/22 02:41:43;;;;;;;13.82;3.75;;;;;;;6.28;100.00;98849.28;5033955;28;20493;-65
2022/11/22 02:44:11;;;;;;;16.80;4.25;;;;;;;6.26;100.00;98854.72;5033751;28;20050;-65
2022/11/22 02:46:47;;;;;;;22.98;3.90;;;;;;;6.29;99.95;98854.38;5033923;28;20049;-65
2022/11/22 02:49:17;;;;;;;10.52;3.53;;;;;;;6.24;100.00;98856.72;5032058;28;20049;-65
2022/11/22 02:51:43;;;;;;;12.20;3.78;;;;;;;6.19;100.00;98853.75;5033954;28;20041;-65
2022/11/22 02:54:10;;;;;;;15.43;3.95;;;;;;;6.18;100.00;98862.66;5033319;28;20029;-65
2022/11/22 02:56:37;;;;;;;16.02;3.67;;;;;;;6.23;100.00;98859.50;5033485;28;20064;-65
2022/11/22 02:59:03;;;;;;;12.77;3.90;;;;;;;6.14;100.00;98856.91;5033584;28;20069;-65
2022/11/22 03:01:30;;;;;;;14.95;4.03;;;;;;;6.19;100.00;98858.22;5033410;28;20549;-65
2022/11/22 03:03:57;;;;;;;19.38;3.90;;;;;;;6.14;100.00;98854.25;5032214;28;20041;-65
2022/11/22 03:06:24;;;;;;;15.27;3.45;;;;;;;6.09;100.00;98861.03;5032758;28;20406;-65
2022/11/22 03:08:51;;;;;;;18.40;3.78;;;;;;;6.14;100.00;98866.63;5033151;28;20503;-65
2022/11/22 03:11:21;;;;;;;17.15;3.30;;;;;;;6.10;100.00;98874.03;5032897;28;20045;-65
2022/11/22 03:13:48;;;;;;;14.13;3.70;;;;;;;6.10;100.00;98876.66;5033449;28;20053;-65
2022/11/22 03:16:15;;;;;;;19.33;3.50;;;;;;;6.10;100.00;98870.59;5033475;28;20084;-65
2022/11/22 03:18:42;;;;;;;13.60;3.05;;;;;;;6.05;100.00;98875.53;5033122;28;20061;-65
2022/11/22 03:21:09;;;;;;;18.52;3.10;;;;;;;5.94;100.00;98879.31;5033106;28;20072;-65
2022/11/22 03:23:36;;;;;;;17.67;3.22;;;;;;;5.88;100.00;98888.72;5033100;28;20042;-66
2022/11/22 03:26:08;;;;;;;24.65;3.13;;;;;;;5.95;100.00;98888.88;5033195;28;20125;-65
2022/11/22 03:28:34;;;;;;;16.25;3.33;;;;;;;6.01;100.00;98901.38;5032954;28;20048;-65
2022/11/22 03:31:05;;;;;;;16.23;3.20;;;;;;;6.11;99.69;98899.38;5033059;28;20049;-65
2022/11/22 03:33:33;;;;;;;21.70;3.63;;;;;;;5.91;98.91;98901.56;5033422;28;20502;-65
2022/11/22 03:36:00;;;;;;;17.65;3.03;;;;;;;5.95;99.68;98900.25;5031795;28;20046;-65
2022/11/22 03:38:26;;;;;;;17.20;3.67;;;;;;;6.00;99.47;98899.72;5033390;28;20050;-65
2022/11/22 03:40:53;;;;;;;23.05;3.53;;;;;;;5.96;98.72;98898.44;5048256;28;20124;-65
2022/11/22 03:43:20;;;;;;;15.57;2.70;;;;;;;6.02;99.20;98912.72;5032995;28;20045;-65
2022/11/22 03:45:46;;;;;;;16.48;2.78;;;;;;;5.99;99.01;98915.72;5032872;28;20104;-65
2022/11/22 03:48:13;;;;;;;22.27;3.25;;;;;;;5.86;98.73;98910.94;5032021;28;20056;-65
2022/11/22 03:50:40;;;;;;;16.23;3.00;;;;;;;5.84;99.43;98919.00;5032767;28;20042;-65
2022/11/22 03:53:07;;;;;;;12.65;3.13;;;;;;;5.95;99.81;98910.78;5031752;28;20048;-65
2022/11/22 03:55:34;;;;;;;18.13;3.08;;;;;;;5.86;99.61;98919.66;5033157;28;20069;-65
2022/11/22 03:58:02;;;;;;;14.80;2.85;;;;;;;5.85;100.00;98919.81;5032334;28;20052;-65
2022/11/22 04:00:29;;;;;;;20.27;3.75;;;;;;;5.79;99.46;98923.13;5048303;28;20069;-65
2022/11/22 04:02:56;;;;;;;15.90;3.17;;;;;;;5.72;98.93;98923.78;5032574;28;20406;-65
2022/11/22 04:05:23;;;;;;;20.73;3.03;;;;;;;5.82;99.32;98923.63;5032701;28;20046;-65
2022/11/22 04:07:54;;;;;;;17.35;2.92;;;;;;;5.83;99.40;98924.44;5032336;28;20055;-65
2022/11/22 04:10:23;;;;;;;23.92;3.83;;;;;;;5.82;98.83;98922.78;5032962;28;20560;-65
2022/11/22 04:12:50;;;;;;;26.67;3.65;;;;;;;5.84;98.61;98926.06;5032972;28;20057;-65
2022/11/22 04:15:17;;;;;;;27.30;3.53;;;;;;;5.81;98.73;98929.03;5032739;28;20437;-65
2022/11/22 04:17:44;;;;;;;21.70;3.50;;;;;;;5.80;98.60;98927.38;5032625;28;20041;-65
2022/11/22 04:23:08;;;;;;;17.17;4.32;;;;;;;5.73;98.99;98932.50;5032530;28;20044;-65
2022/11/22 04:25:38;;;;;;;23.80;4.65;;;;;;;5.68;99.29;98932.19;5032811;28;20461;-65
2022/11/22 04:28:06;;;;;;;23.48;4.55;;;;;;;5.70;99.80;98938.09;5032559;28;20095;-65
2022/11/22 04:33:21;;;;;;;23.75;3.72;;;;;;;5.69;99.83;98945.16;5032413;28;20078;-65
2022/11/22 04:35:48;;;;;;;16.02;3.45;;;;;;;5.67;99.35;98947.13;5032437;28;20072;-65
2022/11/22 04:38:16;;;;;;;23.13;3.72;;;;;;;5.73;99.03;98945.66;5032275;28;20442;-65
2022/11/22 04:40:43;;;;;;;20.70;4.32;;;;;;;5.72;99.11;98951.91;5036517;28;20049;-65
2022/11/22 04:46:15;;;;;;;22.13;4.05;;;;;;;5.61;98.08;98953.06;5036051;28;20041;-65
2022/11/22 04:48:41;;;;;;;25.48;3.90;;;;;;;5.61;98.49;98944.38;5035633;28;20041;-65
2022/11/22 04:53:59;;;;;;;24.05;4.15;;;;;;;5.60;99.33;98950.59;5035496;28;20052;-65
2022/11/22 04:56:26;;;;;;;23.00;3.85;;;;;;;5.55;98.55;98951.94;5035677;28;20446;-65
2022/11/22 04:58:53;;;;;;;19.33;3.75;;;;;;;5.56;98.37;98948.28;5035722;28;20056;-65
2022/11/22 05:01:20;;;;;;;26.92;3.65;;;;;;;5.51;99.19;98957.66;5035648;28;20128;-65
2022/11/22 05:03:47;;;;;;;20.73;3.83;;;;;;;5.49;98.87;98947.31;5035981;28;20072;-66
2022/11/22 05:06:14;;;;;;;25.58;3.72;;;;;;;5.42;97.99;98958.66;5034840;28;20048;-65
2022/11/22 05:08:40;;;;;;;21.98;3.75;;;;;;;5.42;98.63;98956.88;5035739;28;20057;-65
2022/11/22 05:11:07;;;;;;;19.05;3.33;;;;;;;5.42;98.56;98961.28;5035326;28;20497;-65
2022/11/22 05:13:36;;;;;;;23.58;3.15;;;;;;;5.40;98.73;98953.56;5034460;28;20065;-65
2022/11/22 05:16:05;;;;;;;23.95;3.30;;;;;;;5.51;97.55;98963.78;5035224;28;20033;-65
2022/11/22 05:18:33;;;;;;;21.83;3.42;;;;;;;5.45;97.90;98960.97;5035443;28;20046;-65
2022/11/22 05:21:05;;;;;;;17.88;2.75;;;;;;;5.44;98.93;98954.06;5035147;28;20074;-65
2022/11/22 05:24:03;;;;;;;20.77;4.00;;;;;;;5.40;98.34;98961.44;5035412;28;20055;-65
2022/11/22 05:26:23;;;;;;;19.73;3.67;;;;;;;5.47;99.09;98959.00;5034928;28;20046;-65
2022/11/22 05:28:51;;;;;;;19.60;3.33;;;;;;;5.43;98.99;98965.56;5034828;28;20042;-65
2022/11/22 05:31:22;;;;;;;21.02;3.40;;;;;;;5.37;98.44;98962.59;5034724;28;20761;-65
2022/11/22 05:33:50;;;;;;;16.57;2.87;;;;;;;5.39;98.55;98967.72;5035160;28;20049;-65
2022/11/22 05:36:17;;;;;;;16.92;2.95;;;;;;;5.37;98.72;98974.94;5034800;28;20482;-65
2022/11/22 05:38:44;;;;;;;24.48;3.78;;;;;;;5.36;98.62;98971.47;5033944;28;20073;-65
2022/11/22 05:41:13;;;;;;;16.08;2.88;;;;;;;5.41;98.97;98967.56;5034903;28;20055;-65
2022/11/22 05:43:40;;;;;;;19.52;2.85;;;;;;;5.45;98.80;98976.75;5033788;28;20103;-65
2022/11/22 05:46:12;;;;;;;19.58;3.47;;;;;;;5.44;98.38;98980.34;5049693;28;20033;-65
2022/11/22 05:48:41;;;;;;;25.13;3.72;;;;;;;5.46;97.97;98979.22;5034808;28;20442;-65
2022/11/22 05:51:10;;;;;;;17.35;3.42;;;;;;;5.38;97.95;98982.69;5034746;28;20479;-65
2022/11/22 05:53:37;;;;;;;21.38;3.42;;;;;;;5.38;97.74;98989.72;5034139;28;20045;-65
2022/11/22 05:56:10;;;;;;;19.73;3.05;;;;;;;5.39;97.19;98983.50;5034723;28;20046;-65
2022/11/22 05:58:37;;;;;;;29.02;5.90;;;;;;;5.41;97.44;98986.78;5017056;28;20049;-65
2022/11/22 06:01:13;;;;;;;14.60;3.42;;;;;;;5.39;97.58;98986.94;5034657;28;20041;-65
2022/11/22 06:03:40;;;;;;;21.15;4.30;;;;;;;5.21;96.14;98981.00;5034312;28;20054;-65
2022/11/22 06:06:08;;;;;;;23.63;3.88;;;;;;;5.30;97.61;98985.28;5032975;28;20041;-65
2022/11/22 06:08:37;;;;;;;14.85;3.42;;;;;;;5.25;96.43;98982.31;5033132;28;20052;-65
2022/11/22 06:11:08;;;;;;;20.10;3.85;;;;;;;5.27;96.69;98995.31;5034699;28;20045;-65
2022/11/22 06:13:37;;;;;;;18.45;2.85;;;;;;;5.14;96.23;98990.53;5033815;28;20414;-65
2022/11/22 06:16:27;;;;;;;16.90;3.22;;;;;;;5.30;96.84;98985.28;5032953;28;20048;-65
2022/11/22 06:18:54;;;;;;;16.63;3.42;;;;;;;5.28;95.92;98983.81;5034398;28;20461;-65
2022/11/22 06:21:23;;;;;;;19.77;3.38;;;;;;;5.28;96.17;98987.25;5033925;28;20403;-65
2022/11/22 06:23:52;;;;;;;21.60;3.50;;;;;;;5.34;96.28;98991.84;5034046;28;20047;-65
2022/11/22 06:26:20;;;;;;;26.73;3.65;;;;;;;5.31;96.07;98988.72;5034028;28;20037;-65
2022/11/22 06:28:48;;;;;;;23.92;3.88;;;;;;;5.25;94.64;98986.75;5034046;28;20057;-65
2022/11/22 06:31:18;;;;;;;31.13;4.47;;;;;;;5.27;95.00;98985.59;5033490;28;20045;-65
2022/11/22 06:33:45;;;;;;;20.70;3.35;;;;;;;5.30;94.49;98989.72;5033736;28;20042;-65
2022/11/22 06:36:16;;;;;;;18.20;3.95;;;;;;;5.36;95.41;98989.88;5032353;28;20111;-66
2022/11/22 06:38:44;;;;;;;16.40;3.73;;;;;;;5.29;94.82;98990.69;5032559;28;20057;-65
2022/11/22 06:41:14;;;;;;;18.40;3.30;;;;;;;5.29;94.18;98994.16;5032716;28;20292;-66
2022/11/22 06:43:44;;;;;;;20.48;3.33;;;;;;;5.35;94.85;98993.50;5031862;28;20038;-66
2022/11/22 06:46:14;;;;;;;19.25;3.58;;;;;;;5.35;94.03;99005.84;5032799;28;20542;-66
2022/11/22 06:48:41;;;;;;;14.35;2.90;;;;;;;5.21;95.57;98991.53;5032973;28;20557;-66
2022/11/22 06:51:11;;;;;;;19.33;3.35;;;;;;;5.29;95.36;99001.22;5033196;28;20052;-66
2022/11/22 06:53:38;;;;;;;16.40;4.00;;;;;;;5.38;94.10;99000.25;5031869;28;20092;-65
2022/11/22 06:56:16;;;;;;;17.70;3.85;;;;;;;5.26;94.88;98998.94;5033477;28;20045;-65
2022/11/22 06:58:43;;;;;;;20.05;3.70;;;;;;;5.31;95.25;99004.50;5031905;28;20072;-65
2022/11/22 07:01:14;;;;;;;27.48;4.15;;;;;;;5.39;94.14;99002.72;5031503;28;20099;-66
2022/11/22 07:03:42;;;;;;;16.17;3.72;;;;;;;5.25;93.52;98995.47;5032285;28;20073;-65
2022/11/22 07:06:10;;;;;;;16.38;4.50;;;;;;;5.31;94.26;99000.09;5032691;28;20064;-65
2022/11/22 07:08:38;;;;;;;25.08;4.18;;;;;;;5.00;93.77;98999.84;5030589;28;20075;-65
2022/11/22 07:11:10;;;;;;;20.85;3.90;;;;;;;5.14;94.81;99004.47;5033359;28;20053;-66
2022/11/22 07:13:37;;;;;;;20.50;4.00;;;;;;;5.18;93.89;99012.88;5032758;28;20117;-65
2022/11/22 07:16:06;;;;;;;16.05;3.75;;;;;;;5.22;93.31;99008.09;5033082;28;20490;-65
2022/11/22 07:18:34;;;;;;;23.50;3.80;;;;;;;5.06;92.69;99009.72;5032897;28;20395;-65
2022/11/22 07:21:03;;;;;;;21.42;4.50;;;;;;;5.18;93.98;99018.13;5033210;28;20457;-65
2022/11/22 07:23:35;;;;;;;18.50;4.18;;;;;;;5.15;93.40;99021.91;5033085;28;20411;-66
2022/11/22 07:26:02;;;;;;;16.58;3.55;;;;;;;5.17;94.11;99027.81;5033268;28;20049;-65
2022/11/22 07:28:28;;;;;;;20.23;3.65;;;;;;;5.24;93.42;99027.16;5032603;28;20046;-65
2022/11/22 07:31:00;;;;;;;27.70;3.55;;;;;;;5.13;91.70;99030.91;5032791;28;20495;-65
2022/11/22 07:33:27;;;;;;;15.05;3.55;;;;;;;5.17;92.79;99032.25;5033184;28;20056;-65
2022/11/22 07:35:54;;;;;;;13.88;3.70;;;;;;;5.18;91.14;99036.53;5033099;28;20553;-65
2022/11/22 07:38:21;;;;;;;24.65;4.15;;;;;;;5.18;90.69;99039.16;5033058;28;20052;-65
2022/11/22 07:40:47;;;;;;;19.08;3.00;;;;;;;5.37;91.85;99041.50;5032617;28;20045;-65
2022/11/22 07:43:14;;;;;;;17.70;3.20;;;;;;;5.34;90.54;99043.63;5033038;28;20056;-65
2022/11/22 07:45:41;;;;;;;19.92;3.63;;;;;;;5.25;90.79;99042.78;5032778;28;20045;-65
2022/11/22 07:48:07;;;;;;;17.75;3.17;;;;;;;5.39;90.16;99041.34;5033050;28;20049;-65
2022/11/22 07:50:34;;;;;;;27.02;4.00;;;;;;;5.30;90.72;99037.88;5032513;28;20543;-65
2022/11/22 07:53:01;;;;;;;18.42;3.60;;;;;;;5.37;90.36;99035.44;5032896;28;20123;-65
2022/11/22 07:55:27;;;;;;;16.70;3.40;;;;;;;5.34;90.84;99038.38;5032894;28;20068;-65
2022/11/22 07:57:57;;;;;;;23.75;3.95;;;;;;;5.39;89.50;99034.25;5031167;28;20041;-65
2022/11/22 08:00:25;;;;;;;22.98;3.88;;;;;;;5.44;90.40;99033.78;5011211;28;20586;-65
2022/11/22 08:02:52;;;;;;;23.40;4.53;;;;;;;5.44;89.25;99033.78;5015121;28;20079;-66
2022/11/22 08:05:19;;;;;;;16.83;3.10;;;;;;;5.52;89.83;99038.22;5029912;28;20059;-66
2022/11/22 08:07:47;;;;;;;12.88;3.17;;;;;;;5.39;88.94;99036.91;5009185;28;20115;-66
2022/11/22 08:10:14;;;;;;;18.63;3.85;;;;;;;5.50;89.97;99041.03;5013113;28;20406;-66
2022/11/22 08:12:40;;;;;;;19.08;3.60;;;;;;;5.53;89.44;99042.50;5028151;28;20111;-66
2022/11/22 08:15:08;;;;;;;18.15;3.60;;;;;;;5.53;89.88;99053.00;5032381;28;20048;-66
2022/11/22 08:17:37;;;;;;;21.13;3.60;;;;;;;5.51;89.74;99052.34;5029650;28;20041;-68
2022/11/22 08:20:05;;;;;;;23.05;3.63;;;;;;;5.59;89.52;99055.00;5033237;28;20037;-68
2022/11/22 08:22:32;;;;;;;13.32;3.92;;;;;;;5.63;89.70;99052.88;5033881;28;20449;-69
2022/11/22 08:24:58;;;;;;;17.05;3.20;;;;;;;5.71;88.74;99061.59;5024838;28;20053;-68
2022/11/22 08:27:25;;;;;;;19.35;3.65;;;;;;;5.71;88.90;99060.75;5033493;28;20045;-67
2022/11/22 08:29:51;;;;;;;15.55;3.72;;;;;;;5.78;88.61;99056.50;5033795;28;20111;-68
2022/11/22 08:32:18;;;;;;;27.33;3.90;;;;;;;5.83;88.05;99062.09;4997203;28;20096;-66
2022/11/22 08:34:45;;;;;;;16.33;3.40;;;;;;;5.78;88.73;99067.00;5016974;28;20045;-67
2022/11/22 08:37:12;;;;;;;17.38;3.47;;;;;;;6.07;87.67;99066.53;5018194;28;20037;-66
2022/11/22 08:39:39;;;;;;;18.33;3.20;;;;;;;6.07;87.86;99069.19;5024002;28;20041;-66
2022/11/22 08:42:06;;;;;;;20.85;3.60;;;;;;;6.10;86.77;99065.41;5009991;28;20053;-66
2022/11/22 08:44:33;;;;;;;16.38;3.17;;;;;;;6.29;85.69;99074.75;5022538;28;20033;-66
2022/11/22 08:46:59;;;;;;;18.13;2.80;;;;;;;6.35;84.52;99071.47;5016715;28;20145;-66
2022/11/22 08:49:26;;;;;;;18.63;3.00;;;;;;;6.30;84.39;99081.69;5002084;28;20038;-67
2022/11/22 08:51:53;;;;;;;15.85;3.33;;;;;;;6.41;84.37;99078.69;5015151;28;20136;-66
2022/11/22 08:54:19;;;;;;;17.58;2.85;;;;;;;6.48;85.72;99070.94;5022938;28;20061;-66
2022/11/22 08:56:46;;;;;;;17.63;3.30;;;;;;;6.56;84.30;99070.09;5029323;28;20041;-66
2022/11/22 08:59:13;;;;;;;16.50;3.42;;;;;;;6.54;84.21;99068.44;5014763;28;20042;-66
2022/11/22 09:01:39;;;;;;;16.30;3.80;;;;;;;6.68;82.34;99077.47;5019744;28;20115;-66
2022/11/22 09:04:06;;;;;;;22.20;3.53;;;;;;;6.64;82.22;99081.44;5004372;28;20065;-66
2022/11/22 09:06:32;;;;;;;15.48;3.33;;;;;;;6.71;83.23;99077.13;5010228;28;20046;-67
2022/11/22 09:09:19;;;;;;;24.20;3.63;;;;;;;6.79;82.28;99088.66;5015115;28;20103;-67
2022/11/22 09:12:06;;;;;;;25.05;4.15;;;;;;;6.75;81.50;99079.41;5016054;28;20041;-67
2022/11/22 09:14:33;;;;;;;16.65;3.50;;;;;;;6.56;81.29;99080.63;5020754;28;20501;-66
2022/11/22 09:16:59;;;;;;;28.17;3.53;;;;;;;6.60;80.09;99082.75;5024700;28;20044;-67
2022/11/22 09:19:26;;;;;;;21.40;3.67;;;;;;;6.62;82.64;99090.50;5014642;28;20746;-66
2022/11/22 09:21:53;;;;;;;18.33;3.38;;;;;;;6.65;80.94;99088.34;5020849;28;20551;-66
2022/11/22 09:24:20;;;;;;;18.48;3.40;;;;;;;6.67;80.11;99089.00;5020789;28;20049;-67
2022/11/22 09:26:47;;;;;;;21.60;3.60;;;;;;;6.60;82.08;99089.84;5033395;28;20125;-66
2022/11/22 09:29:14;;;;;;;30.80;7.05;;;;;;;6.70;80.20;99096.56;5019803;28;20049;-71
2022/11/22 09:31:42;;;;;;;20.45;3.85;;;;;;;6.64;81.88;99099.03;4998305;28;20131;-67
2022/11/22 09:34:09;;;;;;;12.32;3.20;;;;;;;6.67;81.54;99101.34;5004791;28;21220;-67
2022/11/22 09:36:35;;;;;;;19.25;3.05;;;;;;;6.82;81.22;99088.28;5018279;28;20038;-67
2022/11/22 09:39:03;;;;;;;27.65;3.38;;;;;;;6.82;80.66;99101.47;5022014;28;20675;-67
2022/11/22 09:41:57;;;;;;;17.27;2.90;;;;;;;6.91;80.22;99101.28;5021975;28;20042;-67
2022/11/22 09:45:03;;;;;;;15.05;3.20;;;;;;;6.84;81.11;99097.69;5022473;28;20071;-67
2022/11/22 09:48:05;;;;;;;23.13;3.70;;;;;;;6.91;79.49;99101.28;5021704;28;20236;-67
2022/11/22 09:51:13;;;;;;;12.80;3.53;;;;;;;6.98;79.64;99100.59;5017206;28;20042;-67
2022/11/22 09:53:47;;;;;;;16.08;2.97;;;;;;;7.16;78.79;99103.81;5024604;28;20057;-67
2022/11/22 09:56:17;;;;;;;14.15;2.90;;;;;;;7.25;79.41;99094.88;5024780;28;20045;-67
2022/11/22 09:58:54;;;;;;;14.10;2.50;;;;;;;7.42;78.08;99092.13;5024655;28;20053;-67
2022/11/22 10:01:37;;;;;;;18.23;3.05;;;;;;;7.42;78.59;99084.22;5007636;28;20053;-69
2022/11/22 10:04:14;;;;;;;16.08;2.53;;;;;;;7.49;77.41;99086.00;5006037;28;20438;-67
2022/11/22 10:06:44;;;;;;;15.18;2.50;;;;;;;7.53;75.42;99080.38;5015350;28;20395;-67
2022/11/22 10:09:39;;;;;;;11.18;2.17;;;;;;;7.66;77.05;99075.34;5016781;28;20064;-67
2022/11/22 10:12:14;;;;;;;16.80;2.63;;;;;;;7.71;77.28;99072.97;5014116;28;20050;-67
2022/11/22 10:15:21;;;;;;;15.40;3.08;;;;;;;7.69;76.54;99074.97;5018525;28;20069;-67
2022/11/22 10:18:00;;;;;;;13.90;2.75;;;;;;;7.41;75.37;99072.84;5020450;28;20064;-67
2022/11/22 10:20:30;;;;;;;13.70;2.40;;;;;;;7.54;77.64;99064.34;5007330;28;20041;-67
2022/11/22 10:22:58;;;;;;;11.02;2.40;;;;;;;7.61;76.33;99059.22;5016670;28;20049;-66
2022/11/22 10:25:46;;;;;;;11.60;2.65;;;;;;;7.67;76.02;99061.13;5017286;28;20045;-66
2022/11/22 10:28:34;;;;;;;14.73;2.72;;;;;;;7.72;75.35;99060.63;5018511;28;20486;-66
2022/11/22 10:31:14;;;;;;;17.83;2.80;;;;;;;7.75;74.42;99052.34;5038552;28;20133;-67
2022/11/22 10:33:52;;;;;;;13.48;2.88;;;;;;;7.77;75.54;99055.63;4984085;28;20077;-67
2022/11/22 10:36:55;;;;;;;9.63;2.70;;;;;;;7.74;73.80;99048.06;5009622;28;20040;-67
2022/11/22 10:39:53;;;;;;;11.48;2.50;;;;;;;7.86;75.51;99046.66;5018309;28;20566;-67
2022/11/22 10:42:43;;;;;;;13.55;2.70;;;;;;;7.99;74.47;99040.78;5015697;28;20112;-67
2022/11/22 10:45:33;;;;;;;8.77;1.83;;;;;;;7.83;74.88;99041.72;5028271;28;20080;-67
2022/11/22 10:48:16;;;;;;;13.38;2.40;;;;;;;7.89;75.65;99041.00;5014163;28;20133;-67
2022/11/22 10:50:59;;;;;;;12.18;2.40;;;;;;;8.34;73.47;99038.44;5011895;28;20442;-67
2022/11/22 10:53:46;;;;;;;11.32;2.15;;;;;;;8.48;71.41;99031.53;5010407;28;20033;-67
2022/11/22 10:56:28;;;;;;;13.60;4.15;;;;;;;8.57;70.21;99033.13;5023574;28;20049;-67
2022/11/22 10:59:15;;;;;;;;;;;;;;;8.71;71.15;99031.47;5009296;28;20495;-67
2022/11/22 11:02:11;;;;;;;9.23;1.92;;;;;;;10.85;63.60;99031.50;5019926;28;20016;-67
2022/11/22 11:04:40;;;;;;;9.60;2.05;;;;;;;10.91;62.43;99028.06;5012717;28;20131;-67
2022/11/22 11:07:15;;;;;;;12.52;2.40;;;;;;;11.93;58.91;99023.59;4995984;28;20498;-67
2022/11/22 11:09:46;;;;;;;6.10;1.60;;;;;;;11.00;61.11;99013.59;5012453;28;20096;-67
2022/11/22 11:12:43;;;;;;;8.90;2.08;;;;;;;12.09;57.18;99023.19;5026076;28;20046;-67
2022/11/22 11:15:20;;;;;;;12.07;2.33;;;;;;;13.39;53.15;99013.59;5011018;28;20046;-66
2022/11/22 11:17:53;;;;;;;8.88;2.53;;;;;;;14.99;48.87;99025.47;5023913;28;20495;-66
2022/11/22 11:20:25;;;;;;;21.88;4.00;;;;;;;12.72;53.18;99015.72;5013241;28;20038;-68
2022/11/22 11:22:52;;;;;;;13.57;2.67;;;;;;;11.26;58.00;99014.69;5008409;28;20050;-68
2022/11/22 11:25:41;;;;;;;17.02;2.85;;;;;;;10.30;61.66;99020.78;5009721;28;20133;-66
2022/11/22 11:31:05;;;;;;;12.98;2.55;;;;;;;11.77;58.22;99000.91;5083026;27;20415;-66
2022/11/22 11:33:36;;;;;;;13.75;2.28;;;;;;;12.16;56.67;99006.44;5047844;28;20052;-66
2022/11/22 11:36:07;;;;;;;15.05;2.05;;;;;;;11.33;59.00;98997.78;5089731;28;20055;-67
2022/11/22 11:41:35;;;;;;;8.18;2.00;;;;;;;10.12;64.08;99006.19;5072579;27;21214;-66
2022/11/22 11:44:04;;;;;;;10.70;2.08;;;;;;;9.51;65.74;99004.06;5095203;28;20948;-66
2022/11/22 11:49:17;;;;;;;9.98;1.70;;;;;;;9.74;65.09;99001.22;5075255;27;20680;-66
2022/11/22 11:51:47;;;;;;;22.25;5.18;;;;;;;9.53;65.40;98998.56;5039708;28;20060;-66
2022/11/22 11:54:19;;;;;;;24.88;9.23;;;;;;;9.51;65.77;98992.66;5076406;28;20051;-67
2022/11/22 11:57:03;;;;;;;;;;;;;;;9.31;67.58;98993.28;5056947;28;20115;-66
2022/11/22 11:59:42;;;;;;;22.25;6.70;;;;;;;9.17;67.47;98987.06;5061890;28;20011;-66
2022/11/22 12:02:21;;;;;;;24.27;9.65;;;;;;;8.70;68.34;98996.28;5077599;28;20493;-66
2022/11/22 12:04:53;;;;;;;20.42;8.15;;;;;;;8.55;69.03;98992.81;5061706;28;20117;-66
2022/11/22 12:07:23;;;;;;;28.67;9.73;;;;;;;8.60;70.27;98995.72;5053793;28;20485;-67